Time;durP1;ratioP1;P1;durP2;ratioP2;P2;SDS_P1;SDS_P2;PMS_P1;PMS_P2;Temp;Humidity;BMP_temperature;BMP_pressure;BME280_temperature;BME280_humidity;BME280_pressure;Samples;Min_cycle;Max_cycle;Signal;HPM_P1;HPM_P2
2021/03/18 00:00:19;;;;;;;68.45;34.50;;;1.60;98.50;;;;;;5095994;28;20040;-78
2021/03/18 00:02:45;;;;;;;82.43;34.20;;;1.50;98.60;;;;;;5097371;28;20093;-78
2021/03/18 00:05:11;;;;;;;70.47;32.63;;;1.60;98.50;;;;;;5097634;28;20481;-78
2021/03/18 00:07:37;;;;;;;78.88;34.00;;;1.50;98.50;;;;;;5097563;28;20012;-78
2021/03/18 00:10:05;;;;;;;76.18;35.95;;;1.40;98.60;;;;;;5097182;28;20046;-78
2021/03/18 00:12:31;;;;;;;71.50;33.05;;;1.40;98.80;;;;;;5097090;28;20028;-78
2021/03/18 00:14:58;;;;;;;68.13;32.80;;;1.40;98.90;;;;;;5097380;28;20028;-78
2021/03/18 00:17:24;;;;;;;57.20;30.25;;;1.40;98.80;;;;;;5097084;28;20474;-78
2021/03/18 00:19:49;;;;;;;76.10;33.05;;;1.40;98.80;;;;;;5095805;28;20112;-78
2021/03/18 00:22:15;;;;;;;72.38;32.90;;;1.40;98.90;;;;;;5096991;28;20020;-78
2021/03/18 00:24:41;;;;;;;80.35;36.60;;;1.40;98.90;;;;;;5096900;28;20028;-78
2021/03/18 00:27:07;;;;;;;65.32;29.77;;;1.40;98.90;;;;;;5096811;28;20474;-78
2021/03/18 00:29:32;;;;;;;71.20;33.33;;;1.40;98.80;;;;;;5096904;28;20028;-78
2021/03/18 00:31:58;;;;;;;77.72;34.25;;;1.40;98.70;;;;;;5097096;28;20100;-78
2021/03/18 00:34:23;;;;;;;80.63;36.92;;;1.50;98.60;;;;;;5096945;28;20043;-78
2021/03/18 00:36:49;;;;;;;82.47;41.08;;;1.40;98.60;;;;;;5095491;28;20027;-78
2021/03/18 00:39:15;;;;;;;88.50;41.50;;;1.40;98.60;;;;;;5095449;28;20111;-78
2021/03/18 00:41:41;;;;;;;84.72;38.53;;;1.50;98.60;;;;;;5095441;28;20465;-78
2021/03/18 00:44:06;;;;;;;80.43;36.92;;;1.50;98.60;;;;;;5096325;28;20094;-78
2021/03/18 00:46:32;;;;;;;80.40;36.72;;;1.40;98.60;;;;;;5095091;28;20024;-78
2021/03/18 00:48:58;;;;;;;72.03;35.15;;;1.50;98.60;;;;;;5096504;28;20020;-78
2021/03/18 00:51:24;;;;;;;66.57;31.67;;;1.50;98.60;;;;;;5095141;28;20470;-78
2021/03/18 00:53:50;;;;;;;58.78;26.75;;;1.50;98.60;;;;;;5095146;28;20020;-78
2021/03/18 00:56:20;;;;;;;69.32;32.22;;;1.60;98.60;;;;;;5094947;28;20466;-78
2021/03/18 00:58:47;;;;;;;75.25;34.22;;;1.50;98.50;;;;;;5095020;28;20024;-78
2021/03/18 01:01:16;;;;;;;69.05;33.75;;;1.50;98.50;;;;;;5094876;28;20390;-78
2021/03/18 01:03:42;;;;;;;61.90;31.77;;;1.50;98.50;;;;;;5096173;28;20107;-78
2021/03/18 01:06:29;;;;;;;70.97;32.22;;;1.50;98.60;;;;;;5094772;28;20115;-78
2021/03/18 01:08:56;;;;;;;69.82;32.97;;;1.50;98.50;;;;;;5094840;28;20569;-78
2021/03/18 01:11:27;;;;;;;67.10;30.17;;;1.60;98.50;;;;;;5094683;28;20388;-78
2021/03/18 01:13:59;;;;;;;70.80;33.35;;;1.60;98.40;;;;;;5095982;28;20020;-78
2021/03/18 01:16:37;;;;;;;83.65;40.47;;;1.70;98.30;;;;;;5094741;28;20024;-78
2021/03/18 01:19:07;;;;;;;81.63;39.33;;;1.60;98.20;;;;;;5094591;28;20389;-78
2021/03/18 01:21:45;;;;;;;97.63;45.42;;;1.60;98.30;;;;;;5095768;28;20048;-78
2021/03/18 01:24:12;;;;;;;82.22;38.10;;;1.60;98.30;;;;;;5095738;28;20016;-78
2021/03/18 01:26:38;;;;;;;88.72;39.03;;;1.70;98.20;;;;;;5094389;28;20424;-78
2021/03/18 01:29:05;;;;;;;93.70;41.22;;;1.70;98.10;;;;;;5094447;28;20117;-78
2021/03/18 01:31:31;;;;;;;93.85;40.13;;;1.70;98.10;;;;;;5095584;28;20495;-78
2021/03/18 01:33:57;;;;;;;107.07;46.08;;;1.70;98.10;;;;;;5094341;28;20030;-78
2021/03/18 01:36:24;;;;;;;96.53;46.03;;;1.60;98.00;;;;;;5095645;28;20469;-78
2021/03/18 01:38:50;;;;;;;113.60;50.58;;;1.60;98.20;;;;;;5094310;28;20020;-78
2021/03/18 01:41:17;;;;;;;91.53;44.67;;;1.50;98.20;;;;;;5095461;28;20016;-78
2021/03/18 01:43:43;;;;;;;70.15;34.42;;;1.50;98.20;;;;;;5094168;28;20024;-78
2021/03/18 01:46:10;;;;;;;74.50;37.67;;;1.60;98.10;;;;;;5095424;28;20031;-78
2021/03/18 01:48:36;;;;;;;76.88;35.72;;;1.60;98.00;;;;;;5094154;28;20027;-78
2021/03/18 01:51:04;;;;;;;102.25;44.50;;;1.50;98.20;;;;;;5095228;28;20028;-78
2021/03/18 01:53:30;;;;;;;105.55;44.90;;;1.50;98.20;;;;;;5095250;28;20024;-78
2021/03/18 01:55:57;;;;;;;96.72;46.60;;;1.50;98.30;;;;;;5095054;28;20473;-78
2021/03/18 01:58:24;;;;;;;82.85;38.22;;;1.40;98.40;;;;;;5093886;28;20032;-78
2021/03/18 02:00:54;;;;;;;82.25;40.90;;;1.40;98.30;;;;;;5093686;28;20406;-78
2021/03/18 02:03:20;;;;;;;66.97;34.13;;;1.40;98.40;;;;;;5093844;28;20141;-78
2021/03/18 02:05:47;;;;;;;79.13;38.90;;;1.40;98.20;;;;;;5095053;28;20028;-78
2021/03/18 02:08:13;;;;;;;67.90;35.08;;;1.40;98.30;;;;;;5093675;28;20355;-78
2021/03/18 02:10:39;;;;;;;63.50;33.95;;;1.40;98.20;;;;;;5093541;28;20032;-78
2021/03/18 02:13:07;;;;;;;76.97;39.88;;;1.40;98.10;;;;;;5094915;28;20020;-78
2021/03/18 02:15:36;;;;;;;93.57;47.50;;;1.40;98.00;;;;;;5093453;28;20024;-78
2021/03/18 02:18:35;;;;;;;77.10;39.83;;;1.40;98.20;;;;;;5094749;28;20122;-78
2021/03/18 02:21:38;;;;;;;91.05;46.17;;;1.40;98.30;;;;;;5094607;28;20494;-78
2021/03/18 02:24:29;;;;;;;69.30;35.83;;;1.30;98.40;;;;;;5094730;28;20039;-78
2021/03/18 02:27:27;;;;;;;88.82;43.80;;;1.40;98.20;;;;;;5094786;28;20035;-78
2021/03/18 02:30:15;;;;;;;100.75;45.53;;;1.40;98.10;;;;;;5083490;28;20067;-78
2021/03/18 02:33:11;;;;;;;93.93;45.70;;;1.30;98.20;;;;;;5093123;28;20027;-78
2021/03/18 02:36:03;;;;;;;88.13;45.25;;;1.30;98.40;;;;;;5094406;28;20020;-78
2021/03/18 02:38:36;;;;;;;104.30;49.17;;;1.20;98.50;;;;;;5090282;28;20032;-78
2021/03/18 02:41:05;;;;;;;103.75;48.28;;;1.20;98.60;;;;;;5094044;28;20028;-78
2021/03/18 02:44:16;;;;;;;122.40;56.33;;;1.20;98.50;;;;;;5094115;28;20111;-78
2021/03/18 02:46:43;;;;;;;113.57;51.80;;;1.20;98.70;;;;;;5088154;28;20490;-78
2021/03/18 02:49:11;;;;;;;145.07;61.33;;;1.20;98.70;;;;;;5092818;28;20036;-78
2021/03/18 02:51:39;;;;;;;108.82;52.25;;;1.30;98.60;;;;;;5092550;28;20030;-78
2021/03/18 02:54:09;;;;;;;117.80;56.80;;;1.30;98.60;;;;;;5094074;28;20045;-78
2021/03/18 02:56:40;;;;;;;129.13;57.72;;;1.40;98.50;;;;;;5092699;28;20024;-78
2021/03/18 02:59:06;;;;;;;103.20;49.80;;;1.30;98.60;;;;;;5092784;28;20375;-78
2021/03/18 03:01:33;;;;;;;104.95;49.30;;;1.30;98.70;;;;;;5093857;28;20043;-78
2021/03/18 03:04:00;;;;;;;100.55;47.50;;;1.30;98.60;;;;;;5093508;28;20066;-78
2021/03/18 03:06:27;;;;;;;99.43;48.45;;;1.40;98.60;;;;;;5093836;28;20074;-78
2021/03/18 03:08:53;;;;;;;98.53;48.00;;;1.40;98.60;;;;;;5092607;28;20028;-78
2021/03/18 03:11:24;;;;;;;114.20;53.85;;;1.40;98.50;;;;;;5092268;28;20024;-78
2021/03/18 03:13:51;;;;;;;109.63;48.92;;;1.40;98.40;;;;;;5094041;28;20020;-78
2021/03/18 03:16:22;;;;;;;131.55;56.13;;;1.40;98.50;;;;;;5092352;28;20056;-78
2021/03/18 03:18:49;;;;;;;121.18;53.42;;;1.40;98.50;;;;;;5093875;28;20505;-78
2021/03/18 03:21:17;;;;;;;95.55;42.88;;;1.40;98.40;;;;;;5093608;28;20070;-78
2021/03/18 03:23:45;;;;;;;125.10;55.97;;;1.50;98.30;;;;;;5093565;28;20020;-78
2021/03/18 03:26:11;;;;;;;113.72;51.35;;;1.50;98.30;;;;;;5094005;28;20024;-78
2021/03/18 03:28:38;;;;;;;133.48;53.80;;;1.40;98.30;;;;;;5093686;28;20020;-78
2021/03/18 03:31:04;;;;;;;126.90;49.65;;;1.40;98.30;;;;;;5093835;28;20016;-78
2021/03/18 03:33:30;;;;;;;115.95;52.15;;;1.50;98.30;;;;;;5092324;28;20477;-78
2021/03/18 03:35:57;;;;;;;98.13;47.17;;;1.40;98.30;;;;;;5092368;28;20028;-79
2021/03/18 03:38:23;;;;;;;145.73;47.22;;;1.50;98.20;;;;;;5092228;28;20494;-78
2021/03/18 03:40:51;;;;;;;129.25;54.65;;;1.50;98.10;;;;;;5093621;28;20028;-78
2021/03/18 03:43:17;;;;;;;104.25;45.05;;;1.50;98.10;;;;;;5092209;28;20478;-78
2021/03/18 03:45:43;;;;;;;114.57;49.53;;;1.50;98.20;;;;;;5093694;28;20035;-78
2021/03/18 03:48:09;;;;;;;123.15;50.72;;;1.50;98.00;;;;;;5092153;28;20016;-78
2021/03/18 03:50:36;;;;;;;133.50;51.95;;;1.50;98.00;;;;;;5093322;28;20030;-77
2021/03/18 03:53:14;;;;;;;130.40;49.10;;;1.50;98.00;;;;;;5093449;28;20032;-77
2021/03/18 03:55:52;;;;;;;153.93;53.97;;;1.50;98.10;;;;;;5093364;28;20031;-77
2021/03/18 03:58:55;;;;;;;109.93;45.55;;;1.40;98.00;;;;;;5091571;28;20119;-77
2021/03/18 04:01:42;;;;;;;137.40;51.10;;;1.40;98.10;;;;;;5075792;28;20131;-78
2021/03/18 04:04:15;;;;;;;142.77;49.92;;;1.40;98.20;;;;;;5093281;28;20020;-78
2021/03/18 04:06:43;;;;;;;119.25;44.22;;;1.40;98.20;;;;;;5091809;28;20134;-78
2021/03/18 04:09:14;;;;;;;126.68;43.70;;;1.40;98.10;;;;;;5093156;28;20024;-78
2021/03/18 04:11:41;;;;;;;131.05;48.33;;;1.40;98.10;;;;;;5093353;28;20044;-78
2021/03/18 04:14:09;;;;;;;172.88;52.25;;;1.40;98.10;;;;;;5091958;28;20115;-77
2021/03/18 04:16:37;;;;;;;163.40;49.28;;;1.30;98.30;;;;;;5095508;28;20045;-78
2021/03/18 04:19:05;;;;;;;136.50;44.63;;;1.30;98.30;;;;;;5095726;28;20016;-78
2021/03/18 04:21:36;;;;;;;120.90;43.63;;;1.30;98.20;;;;;;5095863;28;20089;-78
2021/03/18 04:24:04;;;;;;;129.02;43.85;;;1.30;98.20;;;;;;5095978;28;20374;-77
2021/03/18 04:26:34;;;;;;;150.00;48.45;;;1.40;98.10;;;;;;5096030;28;20023;-77
2021/03/18 04:29:04;;;;;;;141.57;45.80;;;1.30;98.10;;;;;;5095112;28;20020;-77
2021/03/18 04:31:32;;;;;;;145.07;49.95;;;1.30;98.20;;;;;;5096609;28;20048;-77
2021/03/18 04:34:00;;;;;;;149.02;47.30;;;1.20;98.30;;;;;;5095331;28;20035;-77
2021/03/18 04:36:27;;;;;;;124.30;43.45;;;1.30;98.30;;;;;;5095343;28;20489;-77
2021/03/18 04:38:56;;;;;;;138.90;45.72;;;1.30;98.30;;;;;;5096595;28;20414;-78
2021/03/18 04:41:22;;;;;;;184.77;53.25;;;1.30;98.20;;;;;;5096477;28;20035;-78
2021/03/18 04:43:48;;;;;;;174.05;51.15;;;1.20;98.30;;;;;;5096380;28;20069;-78
2021/03/18 04:46:14;;;;;;;159.35;49.63;;;1.20;98.50;;;;;;5096360;28;20028;-78
2021/03/18 04:48:43;;;;;;;121.82;44.47;;;1.20;98.60;;;;;;5096460;28;20024;-78
2021/03/18 04:51:10;;;;;;;111.65;40.85;;;1.20;98.50;;;;;;5096376;28;20030;-78
2021/03/18 04:53:36;;;;;;;130.85;42.08;;;1.20;98.50;;;;;;5095057;28;20036;-78
2021/03/18 04:56:11;;;;;;;122.82;39.90;;;1.30;98.40;;;;;;5096181;28;20474;-78
2021/03/18 04:58:39;;;;;;;159.00;46.63;;;1.30;98.30;;;;;;5075901;28;20103;-78
2021/03/18 05:01:06;;;;;;;161.63;45.58;;;1.20;98.50;;;;;;5074159;28;20044;-78
2021/03/18 05:03:33;;;;;;;143.85;44.33;;;1.10;98.60;;;;;;5075607;28;20479;-78
2021/03/18 05:06:00;;;;;;;135.40;43.00;;;1.10;98.60;;;;;;5078794;28;20044;-78
2021/03/18 05:08:28;;;;;;;141.30;39.03;;;1.20;98.60;;;;;;5095821;28;20036;-78
2021/03/18 05:10:55;;;;;;;148.73;42.83;;;1.20;98.50;;;;;;5095967;28;20038;-77
2021/03/18 05:13:23;;;;;;;151.98;41.05;;;1.10;98.50;;;;;;5095963;28;20028;-77
2021/03/18 05:15:51;;;;;;;157.18;42.05;;;1.00;98.50;;;;;;5094399;28;20024;-78
2021/03/18 05:18:18;;;;;;;147.50;40.03;;;1.00;98.70;;;;;;5094573;28;20462;-77
2021/03/18 05:20:46;;;;;;;159.65;38.28;;;1.00;98.60;;;;;;5095611;28;20031;-77
2021/03/18 05:23:13;;;;;;;165.25;35.20;;;1.00;98.60;;;;;;5095587;28;20384;-78
2021/03/18 05:25:40;;;;;;;136.70;34.17;;;1.00;98.60;;;;;;5095686;28;20028;-78
2021/03/18 05:28:06;;;;;;;135.35;35.97;;;1.00;98.60;;;;;;5096377;28;20021;-77
2021/03/18 05:30:33;;;;;;;122.45;32.42;;;1.00;98.60;;;;;;5096284;28;20024;-77
2021/03/18 05:33:01;;;;;;;118.35;32.78;;;1.00;98.50;;;;;;5094189;28;20020;-77
2021/03/18 05:35:27;;;;;;;154.10;35.85;;;1.00;98.60;;;;;;5095227;28;20111;-77
2021/03/18 05:37:53;;;;;;;135.38;34.88;;;1.00;98.50;;;;;;5093618;28;20078;-77
2021/03/18 05:40:20;;;;;;;103.10;30.08;;;0.90;98.90;;;;;;5095384;28;20495;-77
2021/03/18 05:42:47;;;;;;;116.63;34.63;;;1.00;98.70;;;;;;5095148;28;20512;-78
2021/03/18 05:45:14;;;;;;;113.00;33.58;;;1.00;98.70;;;;;;5095021;28;20027;-78
2021/03/18 05:47:41;;;;;;;109.47;31.27;;;1.00;98.80;;;;;;5095240;28;20016;-77
2021/03/18 05:50:11;;;;;;;100.30;29.77;;;1.10;98.70;;;;;;5093878;28;20020;-79
2021/03/18 05:52:38;;;;;;;112.20;32.67;;;1.20;98.60;;;;;;5093483;28;20107;-76
2021/03/18 05:55:05;;;;;;;93.82;30.15;;;1.20;98.60;;;;;;5093672;28;20548;-78
2021/03/18 05:57:33;;;;;;;91.50;29.13;;;1.30;98.70;;;;;;5095050;28;20497;-78
2021/03/18 06:00:00;;;;;;;91.78;31.23;;;1.40;98.60;;;;;;5094411;28;20107;-77
2021/03/18 06:02:26;;;;;;;107.00;33.22;;;1.40;98.40;;;;;;5094721;28;20044;-78
2021/03/18 06:04:52;;;;;;;122.43;35.35;;;1.40;98.40;;;;;;5093521;28;20027;-78
2021/03/18 06:07:18;;;;;;;119.57;36.40;;;1.50;98.40;;;;;;5093485;28;20074;-77
2021/03/18 06:09:44;;;;;;;124.07;36.53;;;1.50;98.30;;;;;;5094362;28;20024;-77
2021/03/18 06:12:10;;;;;;;86.18;28.58;;;1.40;98.20;;;;;;5094868;28;20024;-77
2021/03/18 06:14:35;;;;;;;84.10;29.95;;;1.50;98.40;;;;;;5094610;28;20097;-77
2021/03/18 06:17:01;;;;;;;84.22;30.77;;;1.60;98.40;;;;;;5094741;28;20059;-76
2021/03/18 06:19:27;;;;;;;107.35;34.38;;;1.60;98.30;;;;;;5094697;28;20031;-77
2021/03/18 06:21:56;;;;;;;93.93;33.17;;;1.60;98.10;;;;;;5093065;28;20020;-77
2021/03/18 06:24:27;;;;;;;88.03;28.27;;;1.70;98.20;;;;;;5093281;28;20031;-77
2021/03/18 06:26:54;;;;;;;97.22;30.55;;;1.70;98.00;;;;;;5093205;28;20020;-77
2021/03/18 06:29:30;;;;;;;90.63;36.65;;;1.70;98.00;;;;;;5094478;28;20055;-77
2021/03/18 06:32:00;;;;;;;74.80;26.95;;;1.70;98.00;;;;;;5093323;28;20024;-77
2021/03/18 06:34:46;;;;;;;91.55;27.52;;;1.80;98.00;;;;;;5094299;28;20110;-76
2021/03/18 06:37:29;;;;;;;80.38;27.23;;;1.80;97.60;;;;;;5089978;28;20024;-76
2021/03/18 06:40:07;;;;;;;80.40;23.48;;;1.80;97.70;;;;;;5093395;28;20024;-77
2021/03/18 06:42:33;;;;;;;78.20;26.10;;;1.80;97.70;;;;;;5094694;28;20027;-78
2021/03/18 06:45:17;;;;;;;78.72;24.80;;;1.90;97.50;;;;;;5093064;28;20024;-79
2021/03/18 06:47:54;;;;;;;93.20;27.08;;;1.80;97.40;;;;;;5094185;28;20035;-77
2021/03/18 06:50:22;;;;;;;82.18;25.58;;;1.60;97.10;;;;;;5094255;28;20418;-77
2021/03/18 06:52:48;;;;;;;72.13;26.40;;;1.70;97.40;;;;;;5094303;28;20020;-77
2021/03/18 06:55:24;;;;;;;79.63;25.77;;;1.70;97.30;;;;;;5094074;28;20031;-77
2021/03/18 06:58:09;;;;;;;88.50;25.88;;;1.70;97.10;;;;;;5094031;28;20530;-78
2021/03/18 07:00:36;;;;;;;104.47;27.23;;;1.70;97.10;;;;;;5093582;28;20044;-78
2021/03/18 07:03:01;;;;;;;79.55;23.95;;;1.60;97.10;;;;;;5092604;28;20385;-79
2021/03/18 07:05:35;;;;;;;107.60;26.45;;;1.60;97.50;;;;;;5094126;28;20024;-77
2021/03/18 07:08:01;;;;;;;95.88;26.77;;;1.60;97.20;;;;;;5092253;28;20055;-77
2021/03/18 07:10:36;;;;;;;80.85;28.17;;;1.60;97.40;;;;;;5092366;28;20474;-77
2021/03/18 07:13:23;;;;;;;84.95;27.27;;;1.50;97.70;;;;;;5093783;28;20034;-77
2021/03/18 07:15:50;;;;;;;83.93;26.55;;;1.50;97.90;;;;;;5093720;28;20570;-77
2021/03/18 07:18:16;;;;;;;94.32;28.60;;;1.60;97.90;;;;;;5091597;28;20031;-75
2021/03/18 07:21:02;;;;;;;106.20;28.98;;;1.60;97.90;;;;;;5092577;28;20036;-76
2021/03/18 07:23:44;;;;;;;61.63;23.52;;;1.70;97.90;;;;;;5091665;28;20492;-75
2021/03/18 07:26:22;;;;;;;71.28;25.92;;;1.80;98.20;;;;;;5079520;28;20029;-75
2021/03/18 07:28:51;;;;;;;78.13;27.50;;;1.80;98.10;;;;;;5072990;28;20142;-75
2021/03/18 07:31:18;;;;;;;88.95;30.27;;;1.70;97.70;;;;;;5071845;28;20016;-75
2021/03/18 07:33:44;;;;;;;103.97;28.77;;;1.80;97.90;;;;;;5081063;28;20024;-75
2021/03/18 07:36:12;;;;;;;77.20;27.67;;;1.90;97.70;;;;;;5092879;28;20649;-75
2021/03/18 07:38:39;;;;;;;76.85;26.65;;;1.90;97.60;;;;;;5091960;28;20109;-75
2021/03/18 07:41:12;;;;;;;119.97;37.10;;;1.90;97.60;;;;;;5093546;28;20173;-76
2021/03/18 07:43:41;;;;;;;131.85;45.78;;;2.00;97.50;;;;;;5072989;28;20109;-75
2021/03/18 07:46:08;;;;;;;99.68;33.83;;;2.10;97.30;;;;;;5071996;28;20017;-75
2021/03/18 07:48:34;;;;;;;94.57;28.48;;;2.00;97.40;;;;;;5071986;28;20033;-76
2021/03/18 07:51:02;;;;;;;121.10;40.47;;;2.10;97.00;;;;;;5073865;28;20033;-75
2021/03/18 07:53:29;;;;;;;85.07;29.63;;;2.10;97.00;;;;;;5077240;28;20056;-75
2021/03/18 07:55:55;;;;;;;86.00;28.73;;;2.20;97.40;;;;;;5076364;28;20056;-75
2021/03/18 07:58:40;;;;;;;82.90;28.40;;;2.30;96.90;;;;;;5077774;28;20150;-75
2021/03/18 08:01:07;;;;;;;75.97;25.85;;;2.30;97.10;;;;;;5077260;28;20082;-75
2021/03/18 08:03:33;;;;;;;94.60;26.20;;;2.40;96.90;;;;;;5076929;28;20081;-75
2021/03/18 08:05:59;;;;;;;76.43;23.90;;;2.30;95.90;;;;;;5075391;28;20052;-75
2021/03/18 08:08:31;;;;;;;77.28;24.20;;;2.40;96.90;;;;;;5075630;28;20025;-75
2021/03/18 08:11:15;;;;;;;82.45;28.95;;;2.50;96.50;;;;;;5076776;28;20027;-75
2021/03/18 08:13:43;;;;;;;98.80;28.70;;;2.60;96.40;;;;;;5075681;28;20024;-76
2021/03/18 08:16:30;;;;;;;73.32;26.77;;;2.70;96.70;;;;;;5076755;28;20027;-75
2021/03/18 08:18:56;;;;;;;86.90;23.63;;;2.80;96.50;;;;;;5075395;28;20103;-75
2021/03/18 08:21:34;;;;;;;84.55;23.88;;;2.70;94.40;;;;;;5075393;28;20024;-75
2021/03/18 08:23:59;;;;;;;67.90;21.83;;;2.70;95.10;;;;;;5077253;28;20027;-76
2021/03/18 08:27:06;;;;;;;81.80;22.65;;;2.80;95.50;;;;;;5076578;28;20474;-76
2021/03/18 08:29:39;;;;;;;67.30;20.17;;;2.90;94.90;;;;;;5068174;28;20040;-75
2021/03/18 08:32:08;;;;;;;74.18;23.38;;;2.90;94.60;;;;;;5076562;28;20099;-76
2021/03/18 08:34:51;;;;;;;62.42;22.92;;;3.10;95.20;;;;;;5076555;28;20021;-75
2021/03/18 08:37:38;;;;;;;88.35;23.23;;;3.10;94.50;;;;;;5076488;28;20048;-75
2021/03/18 08:40:18;;;;;;;77.07;22.00;;;3.00;94.20;;;;;;5076366;28;20035;-75
2021/03/18 08:42:45;;;;;;;74.97;21.37;;;3.00;93.80;;;;;;5076119;28;20082;-75
2021/03/18 08:45:20;;;;;;;77.53;21.25;;;3.00;93.00;;;;;;5075039;28;20025;-75
2021/03/18 08:47:48;;;;;;;84.05;21.38;;;3.00;93.80;;;;;;5074855;28;20024;-76
2021/03/18 08:50:34;;;;;;;86.50;21.85;;;3.10;93.70;;;;;;5076484;28;20096;-76
2021/03/18 08:53:23;;;;;;;75.60;22.90;;;3.10;92.70;;;;;;5075879;28;20025;-76
2021/03/18 08:55:49;;;;;;;90.70;20.35;;;3.20;94.20;;;;;;5076221;28;20052;-75
2021/03/18 08:58:15;;;;;;;70.28;18.88;;;3.20;92.60;;;;;;5074790;28;20444;-76
2021/03/18 09:00:42;;;;;;;64.82;19.98;;;3.30;93.40;;;;;;5075894;28;20128;-76
2021/03/18 09:03:23;;;;;;;55.05;18.30;;;3.30;93.50;;;;;;5073834;28;20474;-76
2021/03/18 09:06:00;;;;;;;62.83;20.00;;;3.50;94.10;;;;;;5075684;28;20025;-75
2021/03/18 09:08:30;;;;;;;89.10;23.00;;;3.60;94.10;;;;;;5071541;28;20049;-76
2021/03/18 09:10:56;;;;;;;89.88;25.75;;;3.70;93.50;;;;;;5074220;28;20412;-75
2021/03/18 09:13:25;;;;;;;85.43;23.23;;;3.60;93.20;;;;;;5075843;28;20377;-76
2021/03/18 09:16:01;;;;;;;74.82;20.05;;;3.50;91.80;;;;;;5074427;28;20024;-75
2021/03/18 09:18:33;;;;;;;76.90;21.50;;;3.50;93.10;;;;;;5075386;28;20382;-75
2021/03/18 09:21:07;;;;;;;80.05;22.27;;;3.50;92.90;;;;;;5074369;28;20039;-75
2021/03/18 09:23:36;;;;;;;67.82;21.50;;;3.50;92.90;;;;;;5075454;28;20108;-76
2021/03/18 09:26:06;;;;;;;64.32;19.92;;;3.60;93.30;;;;;;5075521;28;20090;-75
2021/03/18 09:28:43;;;;;;;75.40;21.80;;;3.80;93.30;;;;;;5073872;28;20028;-76
2021/03/18 09:31:22;;;;;;;60.55;18.17;;;3.90;93.00;;;;;;5075374;28;20438;-76
2021/03/18 09:33:52;;;;;;;76.40;21.83;;;4.00;93.50;;;;;;5075150;28;20035;-76
2021/03/18 09:36:23;;;;;;;61.80;19.83;;;4.00;93.00;;;;;;5058057;28;20025;-76
2021/03/18 09:39:18;;;;;;;76.63;22.80;;;4.10;93.10;;;;;;5074026;28;20029;-76
2021/03/18 09:41:49;;;;;;;95.78;25.15;;;4.00;91.70;;;;;;5075281;28;20016;-76
2021/03/18 09:44:25;;;;;;;61.50;20.20;;;3.90;92.00;;;;;;5073041;28;20821;-76
2021/03/18 09:47:05;;;;;;;75.72;18.92;;;4.10;93.10;;;;;;5075098;28;20039;-76
2021/03/18 09:49:41;;;;;;;66.60;19.95;;;4.20;91.90;;;;;;5075010;28;20060;-76
2021/03/18 09:52:13;;;;;;;74.22;22.75;;;4.10;92.20;;;;;;5074814;28;20067;-76
2021/03/18 09:54:42;;;;;;;63.05;20.98;;;4.00;92.60;;;;;;5073624;28;20029;-75
2021/03/18 09:57:10;;;;;;;59.90;20.23;;;4.00;92.80;;;;;;5075154;28;20028;-76
2021/03/18 09:59:40;;;;;;;61.60;20.13;;;4.20;92.70;;;;;;5083857;28;20032;-75
2021/03/18 10:02:09;;;;;;;50.38;20.70;;;4.30;93.00;;;;;;5094366;28;20055;-75
2021/03/18 10:04:41;;;;;;;77.30;25.45;;;4.30;92.40;;;;;;5078706;28;20555;-76
2021/03/18 10:07:07;;;;;;;105.97;22.98;;;4.40;92.20;;;;;;5087234;28;20054;-76
2021/03/18 10:09:42;;;;;;;86.10;23.33;;;4.20;91.70;;;;;;5094552;28;20024;-76
2021/03/18 10:12:22;;;;;;;78.97;23.23;;;4.10;91.90;;;;;;5094433;28;20024;-75
2021/03/18 10:15:13;;;;;;;81.13;21.55;;;4.30;92.20;;;;;;5095051;28;20028;-75
2021/03/18 10:17:42;;;;;;;75.10;19.50;;;4.20;91.50;;;;;;5093676;28;20088;-76
2021/03/18 10:20:39;;;;;;;51.65;17.63;;;4.30;92.20;;;;;;5076123;28;20311;-76
2021/03/18 10:23:10;;;;;;;62.60;19.55;;;4.40;92.40;;;;;;5094262;28;20032;-76
2021/03/18 10:25:41;;;;;;;49.22;17.42;;;4.40;91.70;;;;;;5094601;28;20060;-76
2021/03/18 10:28:18;;;;;;;58.85;19.20;;;4.50;92.30;;;;;;5093113;28;20117;-76
2021/03/18 10:30:49;;;;;;;63.80;19.27;;;4.40;91.70;;;;;;5092913;28;20073;-76
2021/03/18 10:33:18;;;;;;;57.42;18.15;;;4.30;91.20;;;;;;5090438;28;20044;-76
2021/03/18 10:36:03;;;;;;;61.00;17.20;;;4.40;91.70;;;;;;5092889;28;20861;-75
2021/03/18 10:38:41;;;;;;;80.55;20.63;;;4.40;91.50;;;;;;5094207;28;20111;-76
2021/03/18 10:41:15;;;;;;;66.05;18.63;;;4.40;91.60;;;;;;5094262;28;20098;-76
2021/03/18 10:43:45;;;;;;;56.92;19.08;;;4.50;91.70;;;;;;5092880;28;20027;-76
2021/03/18 10:46:40;;;;;;;55.28;17.63;;;4.60;91.60;;;;;;5093691;28;20474;-76
2021/03/18 10:49:16;;;;;;;79.85;26.25;;;4.80;92.20;;;;;;5092855;28;20599;-76
2021/03/18 10:51:51;;;;;;;67.78;18.60;;;4.90;91.60;;;;;;5092902;28;20032;-76
2021/03/18 10:54:21;;;;;;;60.10;17.50;;;4.90;90.40;;;;;;5079734;28;20017;-76
2021/03/18 10:56:53;;;;;;;64.70;19.63;;;4.90;91.00;;;;;;5080497;28;20016;-76
2021/03/18 10:59:25;;;;;;;79.00;19.70;;;5.00;90.80;;;;;;5083225;28;20024;-76
2021/03/18 11:02:05;;;;;;;51.90;16.95;;;5.10;90.20;;;;;;5092337;28;20119;-76
2021/03/18 11:04:51;;;;;;;44.67;14.30;;;5.20;90.00;;;;;;5092119;28;20067;-76
2021/03/18 11:07:22;;;;;;;32.15;11.65;;;5.20;87.70;;;;;;5092404;28;20035;-76
2021/03/18 11:10:34;;;;;;;42.22;12.38;;;5.30;89.90;;;;;;5080631;28;20082;-76
2021/03/18 11:13:12;;;;;;;45.85;13.05;;;5.20;86.40;;;;;;5090145;28;20031;-77
2021/03/18 11:15:49;;;;;;;40.35;12.70;;;5.20;88.40;;;;;;5086428;28;20354;-76
2021/03/18 11:18:26;;;;;;;69.10;23.63;;;5.20;86.90;;;;;;5072188;28;20059;-76
2021/03/18 11:20:57;;;;;;;36.85;12.25;;;5.20;85.70;;;;;;5071090;28;20482;-76
2021/03/18 11:23:36;;;;;;;38.80;12.30;;;5.30;88.40;;;;;;5084700;28;20051;-76
2021/03/18 11:26:09;;;;;;;29.58;11.25;;;5.30;86.10;;;;;;5091675;28;20031;-76
2021/03/18 11:28:35;;;;;;;41.30;12.75;;;5.30;86.70;;;;;;5072201;28;20029;-76
2021/03/18 11:31:14;;;;;;;32.10;11.13;;;5.40;87.60;;;;;;5084065;28;20029;-76
2021/03/18 11:33:41;;;;;;;30.90;11.13;;;5.50;87.10;;;;;;5092119;28;20039;-76
2021/03/18 11:36:16;;;;;;;53.03;12.80;;;5.70;88.40;;;;;;5072288;28;20393;-76
2021/03/18 11:38:43;;;;;;;46.72;13.45;;;5.50;83.00;;;;;;5076932;28;20031;-76
2021/03/18 11:41:09;;;;;;;37.65;11.15;;;5.50;85.80;;;;;;5091825;28;20036;-76
2021/03/18 11:43:37;;;;;;;21.88;9.63;;;5.70;86.60;;;;;;5092578;28;20478;-77
2021/03/18 11:46:07;;;;;;;26.55;9.43;;;5.90;87.50;;;;;;5071989;28;20029;-77
2021/03/18 11:48:34;;;;;;;35.03;11.00;;;6.00;86.60;;;;;;5093242;28;20077;-76
2021/03/18 11:51:01;;;;;;;32.47;10.25;;;5.90;86.30;;;;;;5075117;28;20051;-77
2021/03/18 11:53:28;;;;;;;26.35;9.80;;;5.80;85.30;;;;;;5075045;28;20031;-76
2021/03/18 11:55:54;;;;;;;40.30;12.02;;;5.90;86.20;;;;;;5075301;28;20028;-77
2021/03/18 11:58:24;;;;;;;34.78;11.48;;;5.60;83.40;;;;;;5090419;28;20067;-76
2021/03/18 12:00:50;;;;;;;38.67;13.07;;;5.60;86.30;;;;;;5091694;28;20047;-77
2021/03/18 12:03:16;;;;;;;32.55;10.25;;;5.50;85.00;;;;;;5088023;28;20493;-77
2021/03/18 12:05:50;;;;;;;29.63;9.25;;;5.40;87.00;;;;;;5091946;28;20047;-76
2021/03/18 12:08:16;;;;;;;30.38;9.75;;;5.50;88.60;;;;;;5076562;28;20020;-77
2021/03/18 12:10:43;;;;;;;38.30;10.95;;;5.60;88.80;;;;;;5056958;28;20059;-77
2021/03/18 12:13:10;;;;;;;52.35;18.65;;;5.70;87.80;;;;;;5092851;28;20435;-77
2021/03/18 12:15:35;;;;;;;53.53;16.42;;;6.00;86.70;;;;;;5091930;28;20028;-77
2021/03/18 12:18:02;;;;;;;54.15;15.73;;;6.20;86.60;;;;;;5091692;28;20047;-77
2021/03/18 12:20:29;;;;;;;41.30;15.00;;;6.10;85.40;;;;;;5075057;28;20029;-76
2021/03/18 12:22:55;;;;;;;57.13;16.52;;;6.10;84.90;;;;;;5092918;28;20025;-76
2021/03/18 12:25:22;;;;;;;45.42;13.90;;;6.20;82.90;;;;;;5072648;28;20025;-76
2021/03/18 12:27:49;;;;;;;46.50;14.90;;;6.30;84.30;;;;;;5073444;28;20032;-76
2021/03/18 12:30:17;;;;;;;46.28;14.77;;;6.10;82.30;;;;;;5079243;28;20024;-76
2021/03/18 12:32:43;;;;;;;46.25;13.55;;;6.10;82.00;;;;;;5104704;28;20024;-76
2021/03/18 12:35:11;;;;;;;49.38;14.85;;;6.20;81.90;;;;;;5093190;28;20457;-77
2021/03/18 12:37:37;;;;;;;51.20;17.40;;;6.20;82.50;;;;;;5078114;28;20028;-77
2021/03/18 12:40:05;;;;;;;41.42;13.15;;;6.30;81.70;;;;;;5084125;28;20142;-81
2021/03/18 12:42:33;;;;;;;54.20;23.00;;;6.20;82.80;;;;;;5076191;28;20028;-85
2021/03/18 12:44:59;;;;;;;48.75;14.23;;;6.40;82.60;;;;;;5076238;28;20151;-81
2021/03/18 12:47:25;;;;;;;63.13;15.23;;;6.50;82.60;;;;;;5076434;28;20013;-85
2021/03/18 12:49:51;;;;;;;46.05;14.23;;;6.30;78.40;;;;;;5083899;28;20051;-81
2021/03/18 12:52:17;;;;;;;40.03;12.60;;;6.20;81.10;;;;;;5095121;28;20050;-81